createdAt,value
2023-06-21T00:00:39.422Z,7.60
2023-06-21T00:03:05.957Z,7.38
2023-06-21T00:05:33.401Z,7.20
2023-06-21T00:08:00.017Z,6.35
2023-06-21T00:10:29.012Z,6.40
2023-06-21T00:12:56.110Z,6.60
2023-06-21T00:15:23.242Z,7.30
2023-06-21T00:17:51.117Z,6.70
2023-06-21T00:20:17.617Z,6.75
2023-06-21T00:22:46.011Z,7.18
2023-06-21T00:25:13.670Z,6.65
2023-06-21T00:27:42.617Z,7.05
2023-06-21T00:30:09.618Z,7.07
2023-06-21T00:32:37.837Z,7.75
2023-06-21T00:35:05.109Z,7.30
2023-06-21T00:37:31.472Z,7.30
2023-06-21T00:39:58.570Z,7.32
2023-06-21T00:42:24.992Z,7.60
2023-06-21T00:44:51.393Z,7.80
2023-06-21T00:47:18.982Z,7.22
2023-06-21T00:49:45.630Z,6.45
2023-06-21T00:52:12.869Z,7.55
2023-06-21T00:54:41.083Z,8.07
2023-06-21T00:57:08.349Z,7.07
2023-06-21T00:59:35.829Z,6.85
2023-06-21T01:02:02.282Z,7.43
2023-06-21T01:04:33.035Z,7.53
2023-06-21T01:07:09.701Z,7.03
2023-06-21T01:10:00.805Z,7.88
2023-06-21T01:12:36.391Z,7.55
2023-06-21T01:17:34.001Z,7.85
2023-06-21T01:20:03.421Z,7.90
2023-06-21T01:22:45.276Z,8.25
2023-06-21T01:25:23.763Z,7.63
2023-06-21T01:28:03.122Z,7.72
2023-06-21T01:30:32.451Z,8.02
2023-06-21T01:32:59.890Z,8.00
2023-06-21T01:35:26.709Z,8.10
2023-06-21T01:37:53.608Z,8.10
2023-06-21T01:40:20.200Z,8.27
2023-06-21T01:42:46.644Z,7.90
2023-06-21T01:45:13.166Z,7.68
2023-06-21T01:47:43.823Z,8.38
2023-06-21T01:50:12.239Z,9.00
2023-06-21T01:52:39.798Z,8.13
2023-06-21T01:55:07.985Z,8.77
2023-06-21T01:57:35.874Z,8.55
2023-06-21T02:00:13.736Z,8.65
2023-06-21T02:02:42.298Z,8.88
2023-06-21T02:05:09.955Z,9.13
2023-06-21T02:07:36.994Z,8.63
2023-06-21T02:10:03.832Z,8.07
2023-06-21T02:12:31.696Z,9.57
2023-06-21T02:14:58.050Z,9.18
2023-06-21T02:17:24.403Z,8.95
2023-06-21T02:19:51.446Z,8.88
2023-06-21T02:22:20.020Z,8.95
2023-06-21T02:24:46.389Z,8.10
2023-06-21T02:27:12.791Z,8.77
2023-06-21T02:29:39.144Z,9.65
2023-06-21T02:32:06.318Z,8.60
2023-06-21T02:34:32.677Z,8.63
2023-06-21T02:36:59.835Z,8.65
2023-06-21T02:39:26.204Z,9.05
2023-06-21T02:41:52.582Z,10.07
2023-06-21T02:44:19.075Z,9.23
2023-06-21T02:46:45.438Z,9.48
2023-06-21T02:49:11.766Z,8.45
2023-06-21T02:51:38.099Z,9.77
2023-06-21T02:54:05.196Z,9.10
2023-06-21T02:56:31.586Z,9.63
2023-06-21T02:58:57.939Z,9.45
2023-06-21T03:01:24.340Z,9.02
2023-06-21T03:03:50.818Z,9.82
2023-06-21T03:06:17.181Z,8.93
2023-06-21T03:08:43.570Z,9.55
2023-06-21T03:11:12.537Z,9.50
2023-06-21T03:13:38.888Z,9.00
2023-06-21T03:16:05.382Z,9.73
2023-06-21T03:18:31.721Z,8.90
2023-06-21T03:21:01.330Z,10.23
2023-06-21T03:23:27.994Z,9.57
2023-06-21T03:25:54.648Z,10.45
2023-06-21T03:28:21.643Z,9.70
2023-06-21T03:30:47.978Z,9.63
2023-06-21T03:33:14.314Z,10.15
2023-06-21T03:35:40.693Z,9.27
2023-06-21T03:38:08.036Z,9.27
2023-06-21T03:40:34.456Z,10.00
2023-06-21T03:43:01.179Z,9.20
2023-06-21T03:45:28.123Z,9.40
2023-06-21T03:47:54.515Z,9.32
2023-06-21T03:50:21.039Z,9.32
2023-06-21T03:52:47.402Z,9.43
2023-06-21T03:55:13.788Z,9.60
2023-06-21T03:57:40.160Z,9.80
2023-06-21T04:00:10.042Z,9.13
2023-06-21T04:02:37.071Z,9.15
2023-06-21T04:05:03.794Z,10.00
2023-06-21T04:07:30.957Z,9.18
2023-06-21T04:09:57.368Z,9.45
2023-06-21T04:12:23.724Z,9.20
2023-06-21T04:14:50.033Z,9.63
2023-06-21T04:17:16.395Z,9.77
2023-06-21T04:19:43.398Z,8.55
2023-06-21T04:22:09.763Z,8.85
2023-06-21T04:24:37.427Z,9.70
2023-06-21T04:27:04.161Z,8.60
2023-06-21T04:29:30.855Z,9.25
2023-06-21T04:31:57.173Z,8.57
2023-06-21T04:34:28.189Z,9.05
2023-06-21T04:36:55.229Z,9.80
2023-06-21T04:39:21.893Z,9.35
2023-06-21T04:41:48.380Z,9.23
2023-06-21T04:44:17.483Z,9.77
2023-06-21T04:46:44.807Z,9.25
2023-06-21T04:49:11.156Z,9.10
2023-06-21T04:51:37.549Z,9.45
2023-06-21T04:54:06.689Z,9.55
2023-06-21T04:56:33.119Z,9.18
2023-06-21T04:58:59.534Z,9.38
2023-06-21T05:01:25.877Z,9.68
2023-06-21T05:03:53.457Z,9.68
2023-06-21T05:06:20.841Z,9.52
2023-06-21T05:08:47.383Z,9.00
2023-06-21T05:11:14.738Z,9.05
2023-06-21T05:13:41.154Z,9.48
2023-06-21T05:16:07.499Z,9.38
2023-06-21T05:18:34.005Z,8.13
2023-06-21T05:21:00.337Z,8.95
2023-06-21T05:23:26.786Z,8.85
2023-06-21T05:25:53.192Z,9.68
2023-06-21T05:28:20.216Z,8.65
2023-06-21T05:30:46.568Z,8.68
2023-06-21T05:33:13.738Z,8.15
2023-06-21T05:35:40.098Z,8.38
2023-06-21T05:38:06.788Z,8.13
2023-06-21T05:40:33.288Z,8.10
2023-06-21T05:43:01.606Z,8.23
2023-06-21T05:45:29.047Z,8.38
2023-06-21T05:47:55.437Z,8.35
2023-06-21T05:50:22.027Z,8.20
2023-06-21T05:52:48.358Z,8.07
2023-06-21T05:55:14.790Z,8.20
2023-06-21T05:57:41.120Z,8.57
2023-06-21T06:00:09.930Z,7.78
2023-06-21T06:02:36.945Z,7.38
2023-06-21T06:05:03.665Z,7.57
2023-06-21T06:07:29.998Z,7.32
2023-06-21T06:09:56.391Z,7.65
2023-06-21T06:12:22.744Z,7.50
2023-06-21T06:14:49.133Z,7.93
2023-06-21T06:17:17.003Z,7.80
2023-06-21T06:19:44.006Z,7.22
2023-06-21T06:22:10.453Z,7.78
2023-06-21T06:24:36.863Z,6.78
2023-06-21T06:27:03.757Z,7.13
2023-06-21T06:29:30.782Z,6.80
2023-06-21T06:31:57.291Z,6.03
2023-06-21T06:34:23.867Z,7.05
2023-06-21T06:37:03.038Z,6.55
2023-06-21T06:39:36.860Z,6.97
2023-06-21T06:42:03.625Z,6.95
2023-06-21T06:44:29.943Z,6.97
2023-06-21T06:46:56.315Z,7.07
2023-06-21T06:49:22.735Z,6.72
2023-06-21T06:51:49.736Z,6.95
2023-06-21T06:54:16.157Z,7.07
2023-06-21T06:56:42.559Z,7.45
2023-06-21T06:59:08.941Z,6.97
2023-06-21T07:01:35.415Z,6.50
2023-06-21T07:04:02.389Z,7.43
2023-06-21T07:06:28.816Z,7.22
2023-06-21T07:08:55.995Z,8.35
2023-06-21T07:11:22.327Z,7.90
2023-06-21T07:13:48.633Z,7.93
2023-06-21T07:16:15.344Z,7.30
2023-06-21T07:18:41.685Z,7.15
2023-06-21T07:21:08.020Z,6.88
2023-06-21T07:23:34.421Z,7.53
2023-06-21T07:26:03.313Z,7.32
2023-06-21T07:28:29.813Z,7.55
2023-06-21T07:30:56.413Z,7.53
2023-06-21T07:33:23.290Z,8.77
2023-06-21T07:35:49.678Z,7.95
2023-06-21T07:38:17.790Z,7.82
2023-06-21T07:40:44.262Z,8.27
2023-06-21T07:43:11.257Z,8.02
2023-06-21T07:45:37.667Z,7.95
2023-06-21T07:48:04.682Z,8.23
2023-06-21T07:50:31.295Z,8.70
2023-06-21T07:52:57.649Z,8.05
2023-06-21T07:55:24.027Z,8.02
2023-06-21T07:57:50.397Z,8.90
2023-06-21T08:00:18.304Z,7.30
2023-06-21T08:02:45.141Z,8.27
2023-06-21T08:05:11.543Z,8.20
2023-06-21T08:07:37.866Z,7.63
2023-06-21T08:10:04.838Z,7.57
2023-06-21T08:12:33.992Z,7.18
2023-06-21T08:15:02.561Z,7.32
2023-06-21T08:17:29.626Z,7.45
2023-06-21T08:19:56.012Z,7.55
2023-06-21T08:22:22.596Z,8.38
2023-06-21T08:24:50.218Z,6.82
2023-06-21T08:27:16.641Z,8.07
2023-06-21T08:29:43.297Z,7.82
2023-06-21T08:32:09.808Z,7.20
2023-06-21T08:34:36.830Z,8.07
2023-06-21T08:37:03.312Z,7.78
2023-06-21T08:39:31.402Z,6.72
2023-06-21T08:41:58.981Z,8.10
2023-06-21T08:44:27.987Z,7.82
2023-06-21T08:46:56.022Z,7.60
2023-06-21T08:49:26.776Z,6.88
2023-06-21T08:51:55.693Z,7.28
2023-06-21T08:54:27.769Z,7.40
2023-06-21T08:57:00.111Z,6.95
2023-06-21T08:59:33.910Z,6.93
2023-06-21T09:02:06.943Z,7.43
2023-06-21T09:04:39.128Z,7.00
2023-06-21T09:07:08.307Z,7.72
2023-06-21T09:09:35.186Z,7.38
2023-06-21T09:12:01.535Z,7.45
2023-06-21T09:14:31.781Z,6.93
2023-06-21T09:17:01.855Z,6.85
2023-06-21T09:19:28.802Z,7.57
2023-06-21T09:21:57.548Z,6.82
2023-06-21T09:24:24.853Z,7.13
2023-06-21T09:26:51.319Z,7.30
2023-06-21T09:29:17.912Z,7.38
2023-06-21T09:31:44.312Z,6.72
2023-06-21T09:34:10.761Z,7.10
2023-06-21T09:36:37.644Z,6.15
2023-06-21T09:39:08.061Z,7.05
2023-06-21T09:41:35.779Z,6.35
2023-06-21T09:44:02.202Z,7.30
2023-06-21T09:46:28.722Z,7.10
2023-06-21T09:48:55.243Z,7.00
2023-06-21T09:51:26.400Z,6.88
2023-06-21T09:53:52.709Z,6.70
2023-06-21T09:56:20.201Z,6.13
2023-06-21T09:58:49.345Z,7.20
2023-06-21T10:01:16.633Z,7.40
2023-06-21T10:03:44.789Z,7.07
2023-06-21T10:06:17.095Z,7.50
2023-06-21T10:08:44.079Z,7.05
2023-06-21T10:11:10.672Z,7.38
2023-06-21T10:13:38.098Z,7.22
2023-06-21T10:16:05.734Z,7.22
2023-06-21T10:18:34.127Z,7.65
2023-06-21T10:21:02.987Z,6.95
2023-06-21T10:23:32.090Z,7.00
2023-06-21T10:26:02.229Z,8.27
2023-06-21T10:28:31.117Z,6.82
2023-06-21T10:30:57.904Z,7.47
2023-06-21T10:33:30.302Z,7.32
2023-06-21T10:36:00.231Z,6.80
2023-06-21T10:38:36.225Z,7.85
2023-06-21T10:41:04.503Z,7.50
2023-06-21T10:43:31.724Z,6.70
2023-06-21T10:45:59.668Z,7.25
2023-06-21T10:48:26.944Z,7.00
2023-06-21T10:50:54.319Z,7.30
2023-06-21T10:53:23.155Z,7.20
2023-06-21T10:55:50.107Z,7.65
2023-06-21T10:58:17.730Z,6.80
2023-06-21T11:00:44.783Z,6.38
2023-06-21T11:03:13.525Z,6.00
2023-06-21T11:05:41.004Z,4.68
2023-06-21T11:08:10.856Z,5.45
2023-06-21T11:10:40.394Z,5.32
2023-06-21T11:13:06.776Z,4.97
2023-06-21T11:15:34.230Z,5.75
2023-06-21T11:18:02.404Z,5.05
2023-06-21T11:20:32.306Z,4.70
2023-06-21T11:23:01.060Z,5.43
2023-06-21T11:25:30.169Z,5.07
2023-06-21T11:28:21.765Z,5.53
2023-06-21T11:31:09.694Z,5.53
2023-06-21T11:33:54.722Z,5.70
2023-06-21T11:36:26.209Z,5.10
2023-06-21T11:38:59.448Z,5.43
2023-06-21T11:42:01.814Z,5.00
2023-06-21T11:44:32.053Z,5.35
2023-06-21T11:47:15.751Z,6.10
2023-06-21T11:49:50.924Z,5.65
2023-06-21T11:52:24.068Z,5.38
2023-06-21T11:54:51.662Z,5.40
2023-06-21T11:57:18.133Z,6.32
2023-06-21T11:59:44.570Z,5.63
2023-06-21T12:02:14.949Z,5.85
2023-06-21T12:04:42.837Z,6.10
2023-06-21T12:07:12.476Z,5.60
2023-06-21T12:09:39.952Z,5.53
2023-06-21T12:12:08.263Z,6.32
2023-06-21T12:14:36.227Z,5.93
2023-06-21T12:17:05.044Z,5.65
2023-06-21T12:19:32.553Z,5.82
2023-06-21T12:22:02.626Z,5.45
2023-06-21T12:24:29.565Z,4.90
2023-06-21T12:26:57.842Z,5.35
2023-06-21T12:29:25.180Z,4.20
2023-06-21T12:31:53.468Z,5.43
2023-06-21T12:34:20.249Z,4.82
2023-06-21T12:36:47.090Z,4.85
2023-06-21T12:39:15.124Z,5.20
2023-06-21T12:41:42.743Z,5.05
2023-06-21T12:44:19.798Z,5.38
2023-06-21T12:46:47.150Z,5.90
2023-06-21T12:49:13.902Z,5.18
2023-06-21T12:51:40.366Z,5.03
2023-06-21T12:54:08.509Z,5.30
2023-06-21T12:56:36.287Z,5.70
2023-06-21T12:59:03.728Z,5.20
2023-06-21T13:01:31.616Z,5.00
2023-06-21T13:04:00.323Z,4.70
2023-06-21T13:06:27.532Z,5.45
2023-06-21T13:08:54.297Z,5.55
2023-06-21T13:11:21.824Z,5.25
2023-06-21T13:13:48.260Z,5.75
2023-06-21T13:16:15.169Z,5.50
2023-06-21T13:18:44.876Z,4.97
2023-06-21T13:21:12.152Z,4.78
2023-06-21T13:23:38.575Z,4.53
2023-06-21T13:26:05.399Z,4.93
2023-06-21T13:28:31.799Z,5.45
2023-06-21T13:30:58.257Z,4.80
2023-06-21T13:33:24.863Z,5.15
2023-06-21T13:35:51.802Z,4.40
2023-06-21T13:38:19.407Z,4.63
2023-06-21T13:40:46.013Z,4.78
2023-06-21T13:43:12.465Z,4.63
2023-06-21T13:45:39.049Z,4.78
2023-06-21T13:48:06.513Z,4.40
2023-06-21T13:50:33.035Z,4.68
2023-06-21T13:52:59.584Z,4.95
2023-06-21T13:55:26.765Z,4.32
2023-06-21T13:57:53.152Z,4.82
2023-06-21T14:00:20.910Z,4.78
2023-06-21T14:02:49.041Z,4.70
2023-06-21T14:05:17.334Z,5.18
2023-06-21T14:07:45.174Z,4.30
2023-06-21T14:10:13.061Z,4.78
2023-06-21T14:12:44.240Z,4.47
2023-06-21T14:15:11.678Z,4.40
2023-06-21T14:17:38.993Z,3.95
2023-06-21T14:20:07.628Z,4.03
2023-06-21T14:22:34.060Z,4.53
2023-06-21T14:25:02.735Z,3.95
2023-06-21T14:27:30.740Z,4.00
2023-06-21T14:30:01.525Z,4.05
2023-06-21T14:32:28.513Z,4.47
2023-06-21T14:34:57.382Z,5.25
2023-06-21T14:37:28.003Z,4.75
2023-06-21T14:39:54.917Z,3.90
2023-06-21T14:42:23.156Z,4.78
2023-06-21T14:44:51.754Z,4.53
2023-06-21T14:47:18.838Z,4.18
2023-06-21T14:49:47.078Z,3.85
2023-06-21T14:52:13.507Z,3.60
2023-06-21T14:54:40.001Z,4.05
2023-06-21T14:57:09.284Z,4.00
2023-06-21T14:59:35.729Z,4.30
2023-06-21T15:02:02.142Z,4.18
2023-06-21T15:04:29.202Z,4.45
2023-06-21T15:06:56.051Z,3.85
2023-06-21T15:09:22.540Z,4.55
2023-06-21T15:11:48.957Z,4.18
2023-06-21T15:14:15.417Z,4.43
2023-06-21T15:16:42.744Z,4.32
2023-06-21T15:19:09.939Z,4.60
2023-06-21T15:21:37.042Z,4.22
2023-06-21T15:24:04.499Z,4.07
2023-06-21T15:26:30.991Z,5.13
2023-06-21T15:28:57.595Z,4.75
2023-06-21T15:31:25.439Z,4.35
2023-06-21T15:33:51.969Z,4.25
2023-06-21T15:36:18.540Z,4.32
2023-06-21T15:38:45.560Z,4.93
2023-06-21T15:41:12.103Z,3.97
2023-06-21T15:43:39.342Z,3.92
2023-06-21T15:46:05.794Z,4.18
2023-06-21T15:48:32.325Z,4.88
2023-06-21T15:50:58.826Z,4.82
2023-06-21T15:53:25.251Z,4.40
2023-06-21T15:55:55.079Z,4.38
2023-06-21T15:58:21.452Z,4.40
2023-06-21T16:00:47.830Z,4.22
2023-06-21T16:03:14.506Z,4.45
2023-06-21T16:05:48.995Z,4.43
2023-06-21T16:08:15.363Z,4.30
2023-06-21T16:10:41.751Z,4.35
2023-06-21T16:15:46.679Z,4.10
2023-06-21T16:18:13.127Z,4.20
2023-06-21T16:20:39.959Z,4.22
2023-06-21T16:23:07.457Z,4.57
2023-06-21T16:25:33.875Z,4.63
2023-06-21T16:28:00.263Z,4.18
2023-06-21T16:30:28.655Z,4.60
2023-06-21T16:32:57.568Z,4.47
2023-06-21T16:35:24.218Z,3.97
2023-06-21T16:37:50.584Z,4.18
2023-06-21T16:40:17.261Z,4.80
2023-06-21T16:42:43.893Z,4.18
2023-06-21T16:45:11.037Z,3.72
2023-06-21T16:47:38.176Z,4.45
2023-06-21T16:50:05.395Z,4.25
2023-06-21T16:52:31.823Z,4.32
2023-06-21T16:54:58.241Z,4.10
2023-06-21T16:57:24.676Z,4.50
2023-06-21T16:59:51.477Z,4.47
2023-06-21T17:02:17.924Z,4.47
2023-06-21T17:04:46.944Z,4.68
2023-06-21T17:07:13.377Z,4.88
2023-06-21T17:09:41.096Z,4.45
2023-06-21T17:12:10.365Z,4.15
2023-06-21T17:14:38.082Z,4.97
2023-06-21T17:17:04.753Z,4.68
2023-06-21T17:19:32.299Z,4.32
2023-06-21T17:21:59.301Z,3.97
2023-06-21T17:24:27.335Z,4.40
2023-06-21T17:26:53.728Z,4.22
2023-06-21T17:29:20.195Z,3.97
2023-06-21T17:31:46.599Z,4.13
2023-06-21T17:34:13.013Z,4.40
2023-06-21T17:36:39.846Z,4.15
2023-06-21T17:39:07.043Z,4.32
2023-06-21T17:41:33.414Z,4.45
2023-06-21T17:44:00.279Z,4.60
2023-06-21T17:46:26.782Z,4.57
2023-06-21T17:48:53.315Z,5.30
2023-06-21T17:51:21.643Z,4.78
2023-06-21T17:53:48.443Z,6.97
2023-06-21T17:56:17.230Z,4.28
2023-06-21T17:58:43.657Z,4.07
2023-06-21T18:01:10.269Z,5.18
2023-06-21T18:03:36.960Z,4.95
2023-06-21T18:06:05.132Z,4.68
2023-06-21T18:08:31.639Z,4.72
2023-06-21T18:10:58.562Z,4.68
2023-06-21T18:13:28.329Z,4.60
2023-06-21T18:15:55.057Z,4.65
2023-06-21T18:18:22.773Z,4.53
2023-06-21T18:20:55.903Z,4.38
2023-06-21T18:23:22.282Z,4.30
2023-06-21T18:25:48.842Z,4.88
2023-06-21T18:28:15.244Z,4.88
2023-06-21T18:30:42.724Z,34.65
2023-06-21T18:33:09.238Z,5.47
2023-06-21T18:35:35.903Z,4.95
2023-06-21T18:38:02.633Z,4.95
2023-06-21T18:40:29.265Z,4.95
2023-06-21T18:42:55.908Z,4.00
2023-06-21T18:45:22.556Z,8.48
2023-06-21T18:47:51.072Z,4.38
2023-06-21T18:50:17.596Z,3.97
2023-06-21T18:52:44.044Z,4.28
2023-06-21T18:55:11.763Z,6.50
2023-06-21T18:57:38.527Z,6.30
2023-06-21T19:00:06.224Z,5.63
2023-06-21T19:02:32.862Z,4.53
2023-06-21T19:05:00.302Z,4.32
2023-06-21T19:07:26.949Z,3.85
2023-06-21T19:09:53.374Z,4.45
2023-06-21T19:12:20.401Z,3.78
2023-06-21T19:14:47.339Z,4.63
2023-06-21T19:17:13.764Z,3.95
2023-06-21T19:19:40.967Z,4.72
2023-06-21T19:22:09.183Z,10.43
2023-06-21T19:24:35.714Z,4.97
2023-06-21T19:27:02.988Z,4.97
2023-06-21T19:29:29.401Z,4.38
2023-06-21T19:31:56.064Z,5.22
2023-06-21T19:34:24.014Z,4.38
2023-06-21T19:36:50.496Z,5.15
2023-06-21T19:39:17.866Z,4.70
2023-06-21T19:41:44.795Z,4.65
2023-06-21T19:44:12.475Z,6.15
2023-06-21T19:46:39.963Z,6.53
2023-06-21T19:49:07.107Z,6.22
2023-06-21T19:51:33.613Z,5.25
2023-06-21T19:54:01.268Z,4.32
2023-06-21T19:56:31.074Z,4.50
2023-06-21T19:58:58.294Z,4.60
2023-06-21T20:01:24.880Z,5.40
2023-06-21T20:03:51.332Z,4.43
2023-06-21T20:06:17.743Z,4.53
2023-06-21T20:08:44.130Z,4.28
2023-06-21T20:11:11.147Z,4.55
2023-06-21T20:13:41.030Z,4.10
2023-06-21T20:16:09.797Z,4.38
2023-06-21T20:18:36.580Z,4.28
2023-06-21T20:21:03.123Z,4.03
2023-06-21T20:23:29.583Z,4.25
2023-06-21T20:25:55.928Z,4.18
2023-06-21T20:28:22.320Z,4.50
2023-06-21T20:30:49.508Z,3.72
2023-06-21T20:33:15.988Z,3.92
2023-06-21T20:35:42.894Z,3.90
2023-06-21T20:38:09.901Z,4.15
2023-06-21T20:40:36.980Z,3.45
2023-06-21T20:43:03.461Z,4.32
2023-06-21T20:45:31.508Z,3.97
2023-06-21T20:47:59.173Z,4.57
2023-06-21T20:50:25.709Z,3.95
2023-06-21T20:52:52.419Z,3.97
2023-06-21T20:55:24.894Z,3.92
2023-06-21T20:57:51.375Z,4.47
2023-06-21T21:00:18.497Z,4.28
2023-06-21T21:02:45.038Z,4.32
2023-06-21T21:05:12.220Z,4.13
2023-06-21T21:07:38.636Z,4.82
2023-06-21T21:10:05.970Z,4.50
2023-06-21T21:12:32.387Z,3.70
2023-06-21T21:14:58.756Z,4.43
2023-06-21T21:17:25.118Z,3.88
2023-06-21T21:19:51.561Z,4.00
2023-06-21T21:22:18.700Z,4.40
2023-06-21T21:24:45.097Z,3.83
2023-06-21T21:27:11.636Z,4.55
2023-06-21T21:29:38.230Z,5.05
2023-06-21T21:32:05.449Z,4.30
2023-06-21T21:34:31.859Z,4.03
2023-06-21T21:36:58.227Z,4.70
2023-06-21T21:39:25.337Z,4.40
2023-06-21T21:41:52.172Z,4.20
2023-06-21T21:44:18.655Z,4.97
2023-06-21T21:46:45.047Z,4.43
2023-06-21T21:49:11.494Z,4.95
2023-06-21T21:51:38.077Z,4.72
2023-06-21T21:54:04.708Z,4.45
2023-06-21T21:56:31.756Z,4.45
2023-06-21T21:58:58.210Z,4.25
2023-06-21T22:01:24.753Z,4.13
2023-06-21T22:03:51.329Z,4.32
2023-06-21T22:06:17.919Z,4.22
2023-06-21T22:08:44.372Z,4.95
2023-06-21T22:11:12.016Z,4.47
2023-06-21T22:13:39.156Z,4.80
2023-06-21T22:16:06.087Z,4.32
2023-06-21T22:18:34.065Z,4.45
2023-06-21T22:21:01.673Z,4.53
2023-06-21T22:23:31.686Z,4.32
2023-06-21T22:25:58.978Z,4.60
2023-06-21T22:28:26.921Z,4.05
2023-06-21T22:30:54.224Z,3.75
2023-06-21T22:33:20.681Z,4.72
2023-06-21T22:35:47.841Z,4.00
2023-06-21T22:38:14.229Z,4.30
2023-06-21T22:40:40.586Z,4.72
2023-06-21T22:43:07.052Z,4.60
2023-06-21T22:45:35.095Z,4.22
2023-06-21T22:48:07.279Z,4.65
2023-06-21T22:59:16.256Z,4.88
2023-06-21T23:01:42.618Z,5.47
2023-06-21T23:04:09.229Z,4.93
2023-06-21T23:06:38.104Z,4.95
2023-06-21T23:09:04.549Z,4.70
2023-06-21T23:11:30.946Z,4.57
2023-06-21T23:13:58.074Z,4.93
2023-06-21T23:16:25.365Z,4.45
2023-06-21T23:18:53.982Z,4.80
2023-06-21T23:21:22.875Z,4.63
2023-06-21T23:23:49.270Z,4.72
2023-06-21T23:26:15.655Z,3.92
2023-06-21T23:28:42.077Z,4.43
2023-06-21T23:31:12.512Z,5.28
2023-06-21T23:33:41.343Z,4.28
2023-06-21T23:36:11.531Z,4.72
2023-06-21T23:38:39.037Z,4.80
2023-06-21T23:41:06.165Z,4.95
2023-06-21T23:43:35.798Z,4.47
2023-06-21T23:46:03.702Z,4.90
2023-06-21T23:48:32.179Z,5.22
2023-06-21T23:50:59.844Z,4.60
2023-06-21T23:53:27.009Z,4.78
2023-06-21T23:55:53.666Z,4.72
2023-06-21T23:58:20.071Z,5.07
